sensor_id;sensor_type;location;lat;lon;timestamp;pressure;altitude;pressure_sealevel;temperature;humidity
39363;BME280;25088;43.238;23.110;2024-02-21T00:01:55;97213.47;;;6.61;97.96
39363;BME280;25088;43.238;23.110;2024-02-21T00:04:21;97187.47;;;6.33;98.59
39363;BME280;25088;43.238;23.110;2024-02-21T00:06:46;97205.38;;;6.41;99.18
39363;BME280;25088;43.238;23.110;2024-02-21T00:09:12;97206.03;;;6.43;99.29
39363;BME280;25088;43.238;23.110;2024-02-21T00:11:37;97192.06;;;6.26;98.86
39363;BME280;25088;43.238;23.110;2024-02-21T00:14:03;97207.91;;;6.36;99.16
39363;BME280;25088;43.238;23.110;2024-02-21T00:16:28;97170.84;;;6.10;98.98
39363;BME280;25088;43.238;23.110;2024-02-21T00:18:54;97199.56;;;6.31;98.93
39363;BME280;25088;43.238;23.110;2024-02-21T00:21:19;97206.69;;;6.32;98.63
39363;BME280;25088;43.238;23.110;2024-02-21T00:23:45;97198.56;;;6.32;98.52
39363;BME280;25088;43.238;23.110;2024-02-21T00:26:12;97203.34;;;6.30;98.94
39363;BME280;25088;43.238;23.110;2024-02-21T00:28:38;97172.53;;;6.04;99.71
39363;BME280;25088;43.238;23.110;2024-02-21T00:31:04;97184.81;;;6.13;100.00
39363;BME280;25088;43.238;23.110;2024-02-21T00:33:29;97194.81;;;6.19;99.80
39363;BME280;25088;43.238;23.110;2024-02-21T00:35:54;97202.72;;;6.21;100.00
39363;BME280;25088;43.238;23.110;2024-02-21T00:38:20;97179.81;;;6.17;99.31
39363;BME280;25088;43.238;23.110;2024-02-21T00:40:46;97194.59;;;6.28;99.12
39363;BME280;25088;43.238;23.110;2024-02-21T00:43:12;97192.94;;;6.27;98.72
39363;BME280;25088;43.238;23.110;2024-02-21T00:45:37;97171.88;;;6.22;98.58
39363;BME280;25088;43.238;23.110;2024-02-21T00:48:03;97170.22;;;6.14;98.79
39363;BME280;25088;43.238;23.110;2024-02-21T00:50:29;97185.19;;;6.30;98.94
39363;BME280;25088;43.238;23.110;2024-02-21T00:52:54;97168.75;;;6.18;99.17
39363;BME280;25088;43.238;23.110;2024-02-21T00:55:20;97172.25;;;6.26;99.04
39363;BME280;25088;43.238;23.110;2024-02-21T00:57:45;97172.06;;;6.20;98.56
39363;BME280;25088;43.238;23.110;2024-02-21T01:00:11;97166.44;;;6.22;99.00
39363;BME280;25088;43.238;23.110;2024-02-21T01:02:37;97176.47;;;6.15;99.75
39363;BME280;25088;43.238;23.110;2024-02-21T01:05:02;97120.81;;;5.86;100.00
39363;BME280;25088;43.238;23.110;2024-02-21T01:07:28;97166.25;;;6.17;99.78
39363;BME280;25088;43.238;23.110;2024-02-21T01:09:53;97161.66;;;6.17;99.31
39363;BME280;25088;43.238;23.110;2024-02-21T01:12:19;97144.56;;;6.10;98.50
39363;BME280;25088;43.238;23.110;2024-02-21T01:14:44;97126.22;;;6.06;98.04
39363;BME280;25088;43.238;23.110;2024-02-21T01:17:11;97136.81;;;6.20;97.96
39363;BME280;25088;43.238;23.110;2024-02-21T01:19:37;97152.91;;;6.22;98.84
39363;BME280;25088;43.238;23.110;2024-02-21T01:22:02;97147.88;;;6.19;97.93
39363;BME280;25088;43.238;23.110;2024-02-21T01:24:28;97132.69;;;6.18;97.96
39363;BME280;25088;43.238;23.110;2024-02-21T01:26:53;97149.06;;;6.36;96.53
39363;BME280;25088;43.238;23.110;2024-02-21T01:29:19;97125.34;;;6.32;95.83
39363;BME280;25088;43.238;23.110;2024-02-21T01:31:44;97142.41;;;6.39;95.46
39363;BME280;25088;43.238;23.110;2024-02-21T01:34:10;97132.16;;;6.41;94.34
39363;BME280;25088;43.238;23.110;2024-02-21T01:36:35;97144.06;;;6.40;94.82
39363;BME280;25088;43.238;23.110;2024-02-21T01:39:00;97125.25;;;6.45;94.40
39363;BME280;25088;43.238;23.110;2024-02-21T01:41:26;97148.81;;;6.51;94.50
39363;BME280;25088;43.238;23.110;2024-02-21T01:43:51;97141.34;;;6.46;94.73
39363;BME280;25088;43.238;23.110;2024-02-21T01:46:18;97119.88;;;6.38;94.45
39363;BME280;25088;43.238;23.110;2024-02-21T01:48:43;97127.38;;;6.36;95.05
39363;BME280;25088;43.238;23.110;2024-02-21T01:51:11;97141.09;;;6.55;94.38
39363;BME280;25088;43.238;23.110;2024-02-21T01:53:38;97134.16;;;6.65;93.06
39363;BME280;25088;43.238;23.110;2024-02-21T01:56:07;97114.00;;;6.41;93.16
39363;BME280;25088;43.238;23.110;2024-02-21T01:58:36;97136.25;;;6.63;92.87
39363;BME280;25088;43.238;23.110;2024-02-21T02:01:02;97136.06;;;6.58;93.14
39363;BME280;25088;43.238;23.110;2024-02-21T02:03:28;97134.81;;;6.54;93.92
39363;BME280;25088;43.238;23.110;2024-02-21T02:05:55;97135.25;;;6.58;93.20
39363;BME280;25088;43.238;23.110;2024-02-21T02:08:21;97118.38;;;6.49;92.64
39363;BME280;25088;43.238;23.110;2024-02-21T02:10:49;97114.59;;;6.57;92.14
39363;BME280;25088;43.238;23.110;2024-02-21T02:13:15;97128.53;;;6.60;92.63
39363;BME280;25088;43.238;23.110;2024-02-21T02:15:44;97110.22;;;6.49;92.84
39363;BME280;25088;43.238;23.110;2024-02-21T02:18:11;97123.38;;;6.52;92.82
39363;BME280;25088;43.238;23.110;2024-02-21T02:20:37;97103.16;;;6.48;92.74
39363;BME280;25088;43.238;23.110;2024-02-21T02:25:45;97100.63;;;6.53;92.27
39363;BME280;25088;43.238;23.110;2024-02-21T02:28:14;97117.13;;;6.52;92.98
39363;BME280;25088;43.238;23.110;2024-02-21T02:30:40;97098.97;;;6.52;92.85
39363;BME280;25088;43.238;23.110;2024-02-21T02:33:06;97097.16;;;6.33;94.42
39363;BME280;25088;43.238;23.110;2024-02-21T02:35:31;97105.41;;;6.58;94.29
39363;BME280;25088;43.238;23.110;2024-02-21T02:37:57;97091.47;;;6.47;93.82
39363;BME280;25088;43.238;23.110;2024-02-21T02:40:23;97112.53;;;6.52;93.43
39363;BME280;25088;43.238;23.110;2024-02-21T02:42:50;97111.69;;;6.52;93.43
39363;BME280;25088;43.238;23.110;2024-02-21T02:45:17;97112.47;;;6.59;92.04
39363;BME280;25088;43.238;23.110;2024-02-21T02:47:44;97107.69;;;6.54;92.02
39363;BME280;25088;43.238;23.110;2024-02-21T02:50:11;97093.94;;;6.49;90.28
39363;BME280;25088;43.238;23.110;2024-02-21T02:52:36;97110.78;;;6.64;89.83
39363;BME280;25088;43.238;23.110;2024-02-21T02:55:03;97113.91;;;6.61;89.48
39363;BME280;25088;43.238;23.110;2024-02-21T02:57:28;97114.97;;;6.60;89.65
39363;BME280;25088;43.238;23.110;2024-02-21T02:59:54;97117.94;;;6.52;91.11
39363;BME280;25088;43.238;23.110;2024-02-21T03:02:19;97113.53;;;6.51;89.40
39363;BME280;25088;43.238;23.110;2024-02-21T03:04:45;97112.34;;;6.47;89.52
39363;BME280;25088;43.238;23.110;2024-02-21T03:07:10;97126.34;;;6.37;89.34
39363;BME280;25088;43.238;23.110;2024-02-21T03:09:39;97118.47;;;6.22;88.47
39363;BME280;25088;43.238;23.110;2024-02-21T03:12:05;97130.13;;;6.30;89.42
39363;BME280;25088;43.238;23.110;2024-02-21T03:14:34;97132.69;;;6.18;90.13
39363;BME280;25088;43.238;23.110;2024-02-21T03:17:00;97129.75;;;6.06;90.46
39363;BME280;25088;43.238;23.110;2024-02-21T03:19:26;97126.88;;;5.81;90.58
39363;BME280;25088;43.238;23.110;2024-02-21T03:21:52;97125.44;;;5.79;90.21
39363;BME280;25088;43.238;23.110;2024-02-21T03:24:18;97130.41;;;5.82;89.97
39363;BME280;25088;43.238;23.110;2024-02-21T03:26:44;97145.22;;;5.79;89.43
39363;BME280;25088;43.238;23.110;2024-02-21T03:29:10;97125.44;;;5.59;89.56
39363;BME280;25088;43.238;23.110;2024-02-21T03:31:37;97127.50;;;5.57;89.46
39363;BME280;25088;43.238;23.110;2024-02-21T03:34:02;97147.34;;;5.57;89.38
39363;BME280;25088;43.238;23.110;2024-02-21T03:36:28;97145.22;;;5.66;88.31
39363;BME280;25088;43.238;23.110;2024-02-21T03:38:54;97137.94;;;5.66;88.59
39363;BME280;25088;43.238;23.110;2024-02-21T03:41:20;97141.69;;;5.65;88.51
39363;BME280;25088;43.238;23.110;2024-02-21T03:43:46;97146.28;;;5.65;87.52
39363;BME280;25088;43.238;23.110;2024-02-21T03:46:11;97133.97;;;5.56;87.37
39363;BME280;25088;43.238;23.110;2024-02-21T03:48:36;97149.00;;;5.58;87.36
39363;BME280;25088;43.238;23.110;2024-02-21T03:51:02;97137.34;;;5.58;86.88
39363;BME280;25088;43.238;23.110;2024-02-21T03:53:28;97126.69;;;5.56;86.21
39363;BME280;25088;43.238;23.110;2024-02-21T03:55:54;97146.28;;;5.65;85.86
39363;BME280;25088;43.238;23.110;2024-02-21T03:58:20;97130.88;;;5.45;86.51
39363;BME280;25088;43.238;23.110;2024-02-21T04:00:46;97145.88;;;5.48;86.87
39363;BME280;25088;43.238;23.110;2024-02-21T04:03:11;97123.97;;;5.36;86.80
39363;BME280;25088;43.238;23.110;2024-02-21T04:05:36;97148.78;;;5.53;86.11
39363;BME280;25088;43.238;23.110;2024-02-21T04:08:05;97127.13;;;5.53;86.03
39363;BME280;25088;43.238;23.110;2024-02-21T04:10:31;97144.19;;;5.60;85.55
39363;BME280;25088;43.238;23.110;2024-02-21T04:12:57;97105.03;;;5.30;85.50
39363;BME280;25088;43.238;23.110;2024-02-21T04:15:22;97124.63;;;5.45;85.68
39363;BME280;25088;43.238;23.110;2024-02-21T04:17:47;97130.25;;;5.43;86.22
39363;BME280;25088;43.238;23.110;2024-02-21T04:20:16;97138.34;;;5.57;85.33
39363;BME280;25088;43.238;23.110;2024-02-21T04:22:45;97142.53;;;5.59;85.84
39363;BME280;25088;43.238;23.110;2024-02-21T04:25:11;97105.69;;;5.38;86.89
39363;BME280;25088;43.238;23.110;2024-02-21T04:27:38;97138.16;;;5.58;85.39
39363;BME280;25088;43.238;23.110;2024-02-21T04:30:04;97135.22;;;5.47;85.50
39363;BME280;25088;43.238;23.110;2024-02-21T04:32:30;97131.09;;;5.37;86.18
39363;BME280;25088;43.238;23.110;2024-02-21T04:34:55;97134.19;;;5.41;86.46
39363;BME280;25088;43.238;23.110;2024-02-21T04:37:21;97120.25;;;5.31;85.62
39363;BME280;25088;43.238;23.110;2024-02-21T04:39:47;97121.28;;;5.30;84.99
39363;BME280;25088;43.238;23.110;2024-02-21T04:42:13;97106.50;;;5.32;84.45
39363;BME280;25088;43.238;23.110;2024-02-21T04:44:39;97107.13;;;5.34;84.45
39363;BME280;25088;43.238;23.110;2024-02-21T04:47:04;97126.72;;;5.43;84.24
39363;BME280;25088;43.238;23.110;2024-02-21T04:49:30;97128.38;;;5.44;84.39
39363;BME280;25088;43.238;23.110;2024-02-21T04:51:55;97149.19;;;5.37;84.83
39363;BME280;25088;43.238;23.110;2024-02-21T04:54:21;97126.28;;;5.19;84.62
39363;BME280;25088;43.238;23.110;2024-02-21T04:56:46;97104.00;;;5.04;84.72
39363;BME280;25088;43.238;23.110;2024-02-21T04:59:12;97142.53;;;5.33;84.68
39363;BME280;25088;43.238;23.110;2024-02-21T05:01:37;97133.13;;;5.15;86.32
39363;BME280;25088;43.238;23.110;2024-02-21T05:04:03;97122.28;;;4.96;87.18
39363;BME280;25088;43.238;23.110;2024-02-21T05:06:28;97148.50;;;4.95;87.98
39363;BME280;25088;43.238;23.110;2024-02-21T05:08:54;97111.66;;;4.81;87.46
39363;BME280;25088;43.238;23.110;2024-02-21T05:11:21;97137.50;;;5.03;86.68
39363;BME280;25088;43.238;23.110;2024-02-21T05:13:46;97142.88;;;4.97;86.54
39363;BME280;25088;43.238;23.110;2024-02-21T05:16:12;97139.78;;;5.00;86.63
39363;BME280;25088;43.238;23.110;2024-02-21T05:18:37;97127.91;;;4.87;86.51
39363;BME280;25088;43.238;23.110;2024-02-21T05:21:03;97136.47;;;4.98;86.33
39363;BME280;25088;43.238;23.110;2024-02-21T05:23:29;97137.91;;;5.00;86.17
39363;BME280;25088;43.238;23.110;2024-02-21T05:25:55;97142.09;;;5.16;86.20
39363;BME280;25088;43.238;23.110;2024-02-21T05:28:20;97138.75;;;5.21;85.53
39363;BME280;25088;43.238;23.110;2024-02-21T05:30:46;97123.38;;;5.28;84.69
39363;BME280;25088;43.238;23.110;2024-02-21T05:33:11;97143.56;;;5.32;84.42
39363;BME280;25088;43.238;23.110;2024-02-21T05:35:38;97124.00;;;5.30;84.31
39363;BME280;25088;43.238;23.110;2024-02-21T05:38:03;97153.16;;;5.48;82.94
39363;BME280;25088;43.238;23.110;2024-02-21T05:40:31;97114.19;;;5.42;82.53
39363;BME280;25088;43.238;23.110;2024-02-21T05:42:57;97141.50;;;5.67;82.34
39363;BME280;25088;43.238;23.110;2024-02-21T05:45:23;97135.81;;;5.82;80.67
39363;BME280;25088;43.238;23.110;2024-02-21T05:47:48;97095.44;;;5.74;79.74
39363;BME280;25088;43.238;23.110;2024-02-21T05:50:15;97131.03;;;6.04;78.78
39363;BME280;25088;43.238;23.110;2024-02-21T05:52:40;97147.66;;;6.27;78.32
39363;BME280;25088;43.238;23.110;2024-02-21T05:55:07;97099.94;;;6.13;78.43
39363;BME280;25088;43.238;23.110;2024-02-21T05:57:33;97150.59;;;6.70;76.68
39363;BME280;25088;43.238;23.110;2024-02-21T05:59:58;97144.47;;;7.20;73.79
39363;BME280;25088;43.238;23.110;2024-02-21T06:02:24;97124.97;;;7.61;70.59
39363;BME280;25088;43.238;23.110;2024-02-21T06:04:49;97140.63;;;8.27;68.72
39363;BME280;25088;43.238;23.110;2024-02-21T06:07:15;97123.69;;;8.62;64.63
39363;BME280;25088;43.238;23.110;2024-02-21T06:09:40;97128.00;;;9.00;63.38
39363;BME280;25088;43.238;23.110;2024-02-21T06:12:06;97138.72;;;9.55;61.17
39363;BME280;25088;43.238;23.110;2024-02-21T06:14:31;97149.06;;;9.76;61.86
39363;BME280;25088;43.238;23.110;2024-02-21T06:16:57;97148.59;;;10.03;59.69
39363;BME280;25088;43.238;23.110;2024-02-21T06:19:22;97124.41;;;10.06;60.14
39363;BME280;25088;43.238;23.110;2024-02-21T06:21:48;97132.38;;;9.84;61.50
39363;BME280;25088;43.238;23.110;2024-02-21T06:24:13;97157.19;;;10.30;59.21
39363;BME280;25088;43.238;23.110;2024-02-21T06:26:40;97161.38;;;10.73;58.52
39363;BME280;25088;43.238;23.110;2024-02-21T06:29:06;97155.44;;;10.76;57.09
39363;BME280;25088;43.238;23.110;2024-02-21T06:31:31;97142.97;;;10.68;58.15
39363;BME280;25088;43.238;23.110;2024-02-21T06:33:57;97141.53;;;10.89;56.54
39363;BME280;25088;43.238;23.110;2024-02-21T06:36:22;97156.34;;;11.22;56.28
39363;BME280;25088;43.238;23.110;2024-02-21T06:38:48;97131.09;;;11.31;55.87
39363;BME280;25088;43.238;23.110;2024-02-21T06:41:19;97139.25;;;11.88;54.48
39363;BME280;25088;43.238;23.110;2024-02-21T06:43:45;97146.34;;;12.06;54.16
39363;BME280;25088;43.238;23.110;2024-02-21T06:46:12;97134.31;;;12.24;53.41
39363;BME280;25088;43.238;23.110;2024-02-21T06:48:37;97112.28;;;12.36;53.05
39363;BME280;25088;43.238;23.110;2024-02-21T06:51:03;97128.63;;;12.70;52.56
39363;BME280;25088;43.238;23.110;2024-02-21T06:53:29;97132.19;;;13.14;51.86
39363;BME280;25088;43.238;23.110;2024-02-21T06:55:54;97137.69;;;13.68;51.15
39363;BME280;25088;43.238;23.110;2024-02-21T06:58:20;97130.66;;;13.82;49.30
39363;BME280;25088;43.238;23.110;2024-02-21T07:00:45;97116.50;;;13.95;48.87
39363;BME280;25088;43.238;23.110;2024-02-21T07:03:10;97122.78;;;14.28;49.01
39363;BME280;25088;43.238;23.110;2024-02-21T07:05:36;97133.72;;;14.65;48.44
39363;BME280;25088;43.238;23.110;2024-02-21T07:08:01;97129.47;;;14.95;46.39
39363;BME280;25088;43.238;23.110;2024-02-21T07:10:28;97137.28;;;15.23;44.67
39363;BME280;25088;43.238;23.110;2024-02-21T07:12:54;97116.66;;;15.36;45.42
39363;BME280;25088;43.238;23.110;2024-02-21T07:15:20;97122.47;;;15.60;44.80
39363;BME280;25088;43.238;23.110;2024-02-21T07:17:46;97115.38;;;15.90;44.37
39363;BME280;25088;43.238;23.110;2024-02-21T07:20:11;97114.28;;;16.16;43.61
39363;BME280;25088;43.238;23.110;2024-02-21T07:22:37;97109.81;;;16.36;43.77
39363;BME280;25088;43.238;23.110;2024-02-21T07:25:02;97118.88;;;16.57;42.61
39363;BME280;25088;43.238;23.110;2024-02-21T07:27:28;97101.38;;;17.02;39.90
39363;BME280;25088;43.238;23.110;2024-02-21T07:29:57;97116.78;;;17.08;40.51
39363;BME280;25088;43.238;23.110;2024-02-21T07:32:22;97111.03;;;16.99;40.37
39363;BME280;25088;43.238;23.110;2024-02-21T07:34:48;97120.59;;;17.22;40.47
39363;BME280;25088;43.238;23.110;2024-02-21T07:37:13;97108.56;;;16.98;41.19
39363;BME280;25088;43.238;23.110;2024-02-21T07:39:39;97122.63;;;17.51;40.00
39363;BME280;25088;43.238;23.110;2024-02-21T07:42:04;97119.81;;;17.61;39.85
39363;BME280;25088;43.238;23.110;2024-02-21T07:44:31;97118.66;;;18.06;38.70
39363;BME280;25088;43.238;23.110;2024-02-21T07:46:57;97107.63;;;18.06;38.65
39363;BME280;25088;43.238;23.110;2024-02-21T07:49:23;97104.66;;;18.27;37.87
39363;BME280;25088;43.238;23.110;2024-02-21T07:51:48;97108.81;;;18.24;36.85
39363;BME280;25088;43.238;23.110;2024-02-21T07:54:14;97113.63;;;18.43;36.89
39363;BME280;25088;43.238;23.110;2024-02-21T07:56:39;97121.50;;;18.54;36.31
39363;BME280;25088;43.238;23.110;2024-02-21T07:59:04;97092.28;;;18.48;36.22
39363;BME280;25088;43.238;23.110;2024-02-21T08:01:30;97115.88;;;18.70;37.48
39363;BME280;25088;43.238;23.110;2024-02-21T08:03:55;97100.63;;;18.72;36.15
39363;BME280;25088;43.238;23.110;2024-02-21T08:06:21;97107.97;;;18.82;36.28
39363;BME280;25088;43.238;23.110;2024-02-21T08:08:46;97102.44;;;19.06;36.21
39363;BME280;25088;43.238;23.110;2024-02-21T08:11:13;97102.59;;;19.33;35.34
39363;BME280;25088;43.238;23.110;2024-02-21T08:13:38;97106.00;;;19.49;35.02
39363;BME280;25088;43.238;23.110;2024-02-21T08:16:04;97095.97;;;19.72;34.84
39363;BME280;25088;43.238;23.110;2024-02-21T08:18:29;97108.19;;;19.71;34.16
39363;BME280;25088;43.238;23.110;2024-02-21T08:20:55;97100.63;;;19.77;34.12
39363;BME280;25088;43.238;23.110;2024-02-21T08:23:23;97109.31;;;19.70;34.29
39363;BME280;25088;43.238;23.110;2024-02-21T08:25:49;97096.25;;;19.33;33.72
39363;BME280;25088;43.238;23.110;2024-02-21T08:28:14;97106.44;;;19.56;33.92
39363;BME280;25088;43.238;23.110;2024-02-21T08:30:40;97076.47;;;19.58;35.01
39363;BME280;25088;43.238;23.110;2024-02-21T08:33:09;97081.75;;;20.44;33.24
39363;BME280;25088;43.238;23.110;2024-02-21T08:35:35;97087.63;;;20.56;33.96
39363;BME280;25088;43.238;23.110;2024-02-21T08:38:00;97098.13;;;20.27;33.15
39363;BME280;25088;43.238;23.110;2024-02-21T08:40:25;97081.22;;;20.42;32.47
39363;BME280;25088;43.238;23.110;2024-02-21T08:42:51;97094.53;;;20.73;32.06
39363;BME280;25088;43.238;23.110;2024-02-21T08:45:16;97079.00;;;20.58;32.03
39363;BME280;25088;43.238;23.110;2024-02-21T08:47:42;97075.00;;;20.78;32.21
39363;BME280;25088;43.238;23.110;2024-02-21T08:50:08;97075.97;;;19.94;33.52
39363;BME280;25088;43.238;23.110;2024-02-21T08:52:36;97097.69;;;19.49;33.80
39363;BME280;25088;43.238;23.110;2024-02-21T08:55:02;97070.13;;;18.77;33.72
39363;BME280;25088;43.238;23.110;2024-02-21T08:57:27;97102.34;;;18.63;34.31
39363;BME280;25088;43.238;23.110;2024-02-21T08:59:53;97083.00;;;18.05;33.59
39363;BME280;25088;43.238;23.110;2024-02-21T09:02:19;97105.81;;;17.47;33.88
39363;BME280;25088;43.238;23.110;2024-02-21T09:04:44;97095.84;;;17.51;33.61
39363;BME280;25088;43.238;23.110;2024-02-21T09:07:10;97090.03;;;17.53;34.39
39363;BME280;25088;43.238;23.110;2024-02-21T09:09:36;97098.78;;;17.70;34.41
39363;BME280;25088;43.238;23.110;2024-02-21T09:12:05;97103.84;;;17.03;35.37
39363;BME280;25088;43.238;23.110;2024-02-21T09:14:34;97103.66;;;16.79;36.16
39363;BME280;25088;43.238;23.110;2024-02-21T09:17:00;97091.84;;;16.59;35.88
39363;BME280;25088;43.238;23.110;2024-02-21T09:19:25;97098.22;;;16.49;35.96
39363;BME280;25088;43.238;23.110;2024-02-21T09:21:50;97107.03;;;16.46;36.05
39363;BME280;25088;43.238;23.110;2024-02-21T09:24:17;97103.56;;;17.00;35.82
39363;BME280;25088;43.238;23.110;2024-02-21T09:26:43;97105.97;;;17.22;36.91
39363;BME280;25088;43.238;23.110;2024-02-21T09:29:08;97107.38;;;16.09;36.47
39363;BME280;25088;43.238;23.110;2024-02-21T09:31:34;97092.00;;;15.67;38.43
39363;BME280;25088;43.238;23.110;2024-02-21T09:33:59;97105.88;;;15.14;38.47
39363;BME280;25088;43.238;23.110;2024-02-21T09:36:25;97106.72;;;15.25;39.42
39363;BME280;25088;43.238;23.110;2024-02-21T09:38:50;97112.28;;;15.56;39.09
39363;BME280;25088;43.238;23.110;2024-02-21T09:41:26;97110.13;;;15.63;38.49
39363;BME280;25088;43.238;23.110;2024-02-21T09:43:54;97122.72;;;15.28;39.36
39363;BME280;25088;43.238;23.110;2024-02-21T09:46:24;97119.13;;;15.22;39.64
39363;BME280;25088;43.238;23.110;2024-02-21T09:51:51;97123.09;;;14.79;40.58
39363;BME280;25088;43.238;23.110;2024-02-21T09:54:19;97114.00;;;14.73;41.31
39363;BME280;25088;43.238;23.110;2024-02-21T09:56:46;97117.38;;;14.96;41.12
39363;BME280;25088;43.238;23.110;2024-02-21T09:59:16;97119.00;;;14.87;41.58
39363;BME280;25088;43.238;23.110;2024-02-21T10:01:44;97108.16;;;14.65;40.86
39363;BME280;25088;43.238;23.110;2024-02-21T10:04:12;97099.72;;;14.82;41.27
39363;BME280;25088;43.238;23.110;2024-02-21T10:06:38;97123.19;;;15.05;40.73
39363;BME280;25088;43.238;23.110;2024-02-21T10:09:06;97121.22;;;14.95;40.74
39363;BME280;25088;43.238;23.110;2024-02-21T10:11:31;97116.53;;;14.95;40.44
39363;BME280;25088;43.238;23.110;2024-02-21T10:14:04;97116.53;;;14.95;40.22
39363;BME280;25088;43.238;23.110;2024-02-21T10:16:30;97114.91;;;14.94;40.68
39363;BME280;25088;43.238;23.110;2024-02-21T10:18:55;97120.28;;;14.69;40.36
39363;BME280;25088;43.238;23.110;2024-02-21T10:21:21;97113.88;;;14.48;40.55
39363;BME280;25088;43.238;23.110;2024-02-21T10:23:48;97120.53;;;14.20;41.72
39363;BME280;25088;43.238;23.110;2024-02-21T10:26:15;97120.13;;;14.06;41.61
39363;BME280;25088;43.238;23.110;2024-02-21T10:28:40;97080.38;;;13.77;42.19
39363;BME280;25088;43.238;23.110;2024-02-21T10:31:11;97113.31;;;13.77;42.05
39363;BME280;25088;43.238;23.110;2024-02-21T10:33:53;97110.88;;;13.80;42.21
39363;BME280;25088;43.238;23.110;2024-02-21T10:36:19;97097.72;;;13.82;41.82
39363;BME280;25088;43.238;23.110;2024-02-21T10:38:44;97095.28;;;13.86;43.02
39363;BME280;25088;43.238;23.110;2024-02-21T10:41:14;97102.25;;;13.99;42.65
39363;BME280;25088;43.238;23.110;2024-02-21T10:43:44;97088.34;;;14.15;40.82
39363;BME280;25088;43.238;23.110;2024-02-21T10:46:12;97087.78;;;14.08;41.55
39363;BME280;25088;43.238;23.110;2024-02-21T10:48:44;97059.91;;;13.89;42.26
39363;BME280;25088;43.238;23.110;2024-02-21T10:51:16;97092.09;;;13.99;41.90
39363;BME280;25088;43.238;23.110;2024-02-21T10:56:30;97070.84;;;13.84;42.12
39363;BME280;25088;43.238;23.110;2024-02-21T10:59:05;97060.09;;;13.73;42.90
39363;BME280;25088;43.238;23.110;2024-02-21T11:01:31;97063.72;;;13.83;41.59
39363;BME280;25088;43.238;23.110;2024-02-21T11:04:01;97073.31;;;13.86;41.50
39363;BME280;25088;43.238;23.110;2024-02-21T11:06:28;97084.13;;;13.98;41.54
39363;BME280;25088;43.238;23.110;2024-02-21T11:11:36;97077.28;;;13.63;42.36
39363;BME280;25088;43.238;23.110;2024-02-21T11:16:43;97076.69;;;13.29;44.81
39363;BME280;25088;43.238;23.110;2024-02-21T11:19:19;97077.63;;;13.39;45.96
39363;BME280;25088;43.238;23.110;2024-02-21T11:21:45;97082.69;;;13.53;47.41
39363;BME280;25088;43.238;23.110;2024-02-21T11:24:10;97062.59;;;13.47;46.41
39363;BME280;25088;43.238;23.110;2024-02-21T11:26:37;97071.44;;;13.54;48.05
39363;BME280;25088;43.238;23.110;2024-02-21T11:29:03;97061.16;;;13.71;47.19
39363;BME280;25088;43.238;23.110;2024-02-21T11:31:44;97064.00;;;13.87;47.73
39363;BME280;25088;43.238;23.110;2024-02-21T11:34:12;97062.50;;;14.06;47.05
39363;BME280;25088;43.238;23.110;2024-02-21T11:36:51;97055.75;;;14.29;48.05
39363;BME280;25088;43.238;23.110;2024-02-21T11:39:25;97044.69;;;14.66;46.83
39363;BME280;25088;43.238;23.110;2024-02-21T11:42:04;97036.84;;;15.21;43.92
39363;BME280;25088;43.238;23.110;2024-02-21T11:44:31;97026.19;;;15.65;43.04
39363;BME280;25088;43.238;23.110;2024-02-21T11:46:57;97026.72;;;15.88;43.06
39363;BME280;25088;43.238;23.110;2024-02-21T11:49:28;97024.19;;;16.22;41.91
39363;BME280;25088;43.238;23.110;2024-02-21T11:52:00;97016.34;;;16.49;41.41
39363;BME280;25088;43.238;23.110;2024-02-21T11:54:27;97006.69;;;16.57;40.53
39363;BME280;25088;43.238;23.110;2024-02-21T11:56:53;97011.38;;;16.57;40.06
39363;BME280;25088;43.238;23.110;2024-02-21T11:59:18;97009.13;;;16.64;40.91
39363;BME280;25088;43.238;23.110;2024-02-21T12:01:44;97012.97;;;16.68;39.99
39363;BME280;25088;43.238;23.110;2024-02-21T12:04:10;97005.00;;;16.71;39.64
39363;BME280;25088;43.238;23.110;2024-02-21T12:06:35;97011.25;;;16.87;39.58
39363;BME280;25088;43.238;23.110;2024-02-21T12:09:01;97007.41;;;16.83;39.59
39363;BME280;25088;43.238;23.110;2024-02-21T12:11:26;97007.69;;;16.12;40.89
39363;BME280;25088;43.238;23.110;2024-02-21T12:13:59;97006.06;;;15.60;41.11
39363;BME280;25088;43.238;23.110;2024-02-21T12:16:27;97011.03;;;15.32;40.87
39363;BME280;25088;43.238;23.110;2024-02-21T12:18:53;97014.31;;;15.09;41.44
39363;BME280;25088;43.238;23.110;2024-02-21T12:21:19;97004.13;;;15.14;40.68
39363;BME280;25088;43.238;23.110;2024-02-21T12:23:44;97008.22;;;15.02;40.28
39363;BME280;25088;43.238;23.110;2024-02-21T12:26:12;97001.91;;;14.96;40.43
39363;BME280;25088;43.238;23.110;2024-02-21T12:28:37;96989.81;;;14.97;40.70
39363;BME280;25088;43.238;23.110;2024-02-21T12:31:03;96995.56;;;14.90;42.22
39363;BME280;25088;43.238;23.110;2024-02-21T12:33:30;97009.00;;;14.77;44.78
39363;BME280;25088;43.238;23.110;2024-02-21T12:35:55;96994.66;;;14.59;45.48
39363;BME280;25088;43.238;23.110;2024-02-21T12:38:20;97012.59;;;14.77;45.86
39363;BME280;25088;43.238;23.110;2024-02-21T12:40:46;97013.09;;;14.64;44.43
39363;BME280;25088;43.238;23.110;2024-02-21T12:43:11;96989.09;;;14.44;45.22
39363;BME280;25088;43.238;23.110;2024-02-21T12:45:37;97001.25;;;14.58;45.25
39363;BME280;25088;43.238;23.110;2024-02-21T12:48:02;96998.75;;;14.52;45.87
39363;BME280;25088;43.238;23.110;2024-02-21T12:50:29;96993.75;;;14.38;45.47
39363;BME280;25088;43.238;23.110;2024-02-21T12:52:56;96983.56;;;14.34;46.06
39363;BME280;25088;43.238;23.110;2024-02-21T12:55:23;96972.78;;;14.22;45.49
39363;BME280;25088;43.238;23.110;2024-02-21T12:57:49;96985.19;;;14.35;46.26
39363;BME280;25088;43.238;23.110;2024-02-21T13:00:15;96998.19;;;14.50;46.15
39363;BME280;25088;43.238;23.110;2024-02-21T13:02:40;96989.19;;;14.07;47.41
39363;BME280;25088;43.238;23.110;2024-02-21T13:05:06;96990.50;;;13.94;48.05